Nearby METAR Reports

 

KBAX - Bad Axe, Michigan, USA
Distance from station: ESE 22mi, 35km
Updated: Mon, 20-Feb-2017 12:57am EST
Clear
Clear
 Wind from calm
Wind: Calm
Temperature: 27°F , -3°C
Dew Point: 25°F , -4°C
Humidity: 93%
Barometer: 30.20 inHg , 1022.7 hPa
Clouds: Clear
Visibility: 10 miles , 16 km
2017/02/20 05:57 KBAX 200557Z AUTO 00000KT 10SM CLR M03/M04 A3020 RMK AO2 T10261040 10035 21027 401151027
KP58 - Port Hope, Michigan, USA
Distance from station: ENE 30mi, 48km
Updated: Mon, 20-Feb-2017 12:51am EST

 Wind from calm
Wind: Calm
Temperature: 30°F , -1°C
Dew Point: 28°F , -2°C
Humidity: 93%
Barometer: 30.18 inHg , 1022 hPa
2017/02/20 05:51 KP58 200551Z AUTO 00000KT M01/M02 A3018 RMK AO1 SLP228 T10111022 10022 21011 53010
KCFS - Caro/Tuscola, Michigan, USA
Distance from station: S 31mi, 50km
Updated: Mon, 20-Feb-2017 12:55am EST
Clear
Clear
 Wind from calm
Wind: Calm
Temperature: 32°F , 0°C
Dew Point: 30°F , -1°C
Humidity: 93%
Barometer: 30.19 inHg , 1022.4 hPa
Clouds: Clear
Visibility: 10 miles , 16 km
2017/02/20 05:55 KCFS 200555Z AUTO 00000KT 10SM CLR 00/M01 A3019 RMK AO2 T00031010 10046 20000 401421011
 
KOSC - Oscoda/Wurtsmith, Michigan, USA
Distance from station: N 37mi, 60km
Updated: Mon, 20-Feb-2017 12:53am EST
Clear
Clear
 Wind from calm
Wind: Calm
Temperature: 28°F , -2°C
Dew Point: 25°F , -4°C
Humidity: 86%
Barometer: 30.19 inHg , 1022.4 hPa
Clouds: Clear
Visibility: 10 miles , 16 km
2017/02/20 05:53 KOSC 200553Z AUTO 00000KT 10SM CLR M02/M04 A3019 RMK AO2 T10251041 10024 21035
KHYX - Saginaw/Browne, Michigan, USA
Distance from station: SW 41mi, 66km
Updated: Mon, 20-Feb-2017 12:57am EST
Clear
Clear
 Wind from calm
Wind: Calm
Temperature: 34°F , 1°C
Dew Point: 28°F , -2°C
Humidity: 81%
Barometer: 30.19 inHg , 1022.4 hPa
Clouds: Clear
Visibility: 10 miles , 16 km
2017/02/20 05:57 KHYX 200557Z AUTO 00000KT 10SM CLR 01/M02 A3019 RMK AO2
KMBS - Saginaw, Michigan, USA
Distance from station: SW 44mi, 70km
Updated: Mon, 20-Feb-2017 12:53am EST
Clear
Clear
 Wind from ESE
Wind: ESE 3 mph , 6 km/h
Temperature: 34°F , 1°C
Dew Point: 30°F , -1°C
Humidity: 87%
Barometer: 30.20 inHg , 1022.7 hPa
Clouds: Clear
Visibility: 10 miles , 16 km
2017/02/20 05:53 KMBS 200553Z AUTO 12003KT 10SM CLR 01/M01 A3020 RMK AO2 SLP230 T00111011 10106 20006 53013
 
KIKW - Midland Barstow, Michigan, USA
Distance from station: WSW 47mi, 76km
Updated: Mon, 20-Feb-2017 12:54am EST
Clear
Clear
 Wind from calm
Wind: Calm
Temperature: 32°F , 0°C
Dew Point: 27°F , -3°C
Humidity: 80%
Barometer: 30.19 inHg , 1022.4 hPa
Clouds: Clear
Visibility: 10 miles , 16 km
2017/02/20 05:54 KIKW 200554Z AUTO 00000KT 10SM CLR 00/M03 A3019 RMK AO2 T10011027 10057 21001 401471007